Hammond, Louisiana
Current Conditions -  °F | °C
As of 5:15 AM on Tuesday 21 Oct 2014 (Local Time) from KHDC Reporting Station
NA  
Wind Chill: 11°   Ceiling: NA
Heat Index: 11°   Visibility: NA
Dew Point:   Wind: 0mph
Humidity: 88%   Direction: NA
Pressure: 30.04"   Gusts: NA
Location:  30.5°N, 90.46°W
Report Text: KHDC 211015Z AUTO 00000KT 11/09 A3004 RMK AO2 PWINO
Loading
Personal Weather Stations






























Interactive Weather Map
Tropical Storm Tracking
New forecast layout! Learn more

10-Day Weather Forecast

Advertisements
Track Severe Weather on mobile